ESMI weather

Sjöbo/Sövde Airport
Sövdeborg, Skåne län, Sweden

Public forecast

Using degrees Celsius for public forecast. Weather courtesy of forecast.io.

METAR (pilot weather report)

Closest report is Malmö Sturup Airport, 10.8 nm (20.0 km) WSW. Retrieved 2019/09/18 08:20 UTC (6 minutes ago):

ESMS 180820Z 30011KT 9999 SCT012 BKN033 13/10 Q1016

TAF (pilot weather forecast)

Closest forecast is Malmö Sturup Airport, 10.8 nm (20.0 km) WSW. Retrieved 2019/09/18 06:37 UTC (2 hours ago):

TAF ESMS 180508Z 1806/1906 30012KT 9999 SCT030 TEMPO 1806/1824 SCT020CB